UAL151 KLAX-VHHH
Flight info
| Callsign | UAL151 |
|---|---|
| Flight time | N/A |
| Altitude | 30000 |
| Route | SUMMR2 MCKEY DCT LIBBO DCT BRINY DCT BOARS DCT AMAKR DCT LINUZ DCT NATTE DCT 43N130W 48N140W 50N150W/N0493F320 52N160W 54N170W 54N180E DCT NIKLL/N0499F340 R220 NOGAL/N0496F350 R220 NODAN/N0492F340 R217 ASTER Y514 SDE Y512 ELDAK/N0489F360 Y512 GTC Y142 SAMON Y14 DGC V28 FUE Z40 IGMON A1 APU/N0486F380 A1 ELATO V522 ABBEY |
| Aircraft | B77W/H-SDE1E2E3FGHIJ2J3J4J5M1RWXY/LB1D1 |
Departure
| Time | 2026-04-24 05:42 |
|---|---|
| Airport | Los Angeles International Airport (KLAX) |
Arrival
| Time | N/A |
|---|---|
| Airport | Hong Kong International Airport (VHHH) |
| Time | Latitude | Longitude | Altitude | Speed | Heading |
|---|---|---|---|---|---|
| 2026-04-24 05:20 | 33.94090 | -118.40921 | 125 ft | 0 kts | 264° |
| 2026-04-24 05:32 | 33.94092 | -118.40907 | 125 ft | 4 kts | 264° |
| 2026-04-24 05:32 | 33.94095 | -118.40875 | 125 ft | 4 kts | 263° |
| 2026-04-24 05:32 | 33.94098 | -118.40849 | 125 ft | 4 kts | 238° |
| 2026-04-24 05:32 | 33.94116 | -118.40836 | 125 ft | 4 kts | 175° |
| 2026-04-24 05:33 | 33.94137 | -118.40840 | 125 ft | 0 kts | 173° |
| 2026-04-24 05:33 | 33.94138 | -118.40840 | 125 ft | 0 kts | 173° |
| 2026-04-24 05:35 | 33.94135 | -118.40839 | 125 ft | 3 kts | 173° |
| 2026-04-24 05:36 | 33.94050 | -118.40826 | 126 ft | 19 kts | 173° |
| 2026-04-24 05:36 | 33.93920 | -118.40802 | 127 ft | 19 kts | 158° |
| 2026-04-24 05:36 | 33.93818 | -118.40700 | 126 ft | 19 kts | 116° |
| 2026-04-24 05:36 | 33.93827 | -118.40507 | 127 ft | 30 kts | 82° |
| 2026-04-24 05:37 | 33.93858 | -118.40199 | 129 ft | 42 kts | 82° |
| 2026-04-24 05:37 | 33.93891 | -118.39869 | 129 ft | 38 kts | 82° |
| 2026-04-24 05:37 | 33.93920 | -118.39590 | 130 ft | 30 kts | 83° |
| 2026-04-24 05:37 | 33.93940 | -118.39390 | 126 ft | 24 kts | 82° |
| 2026-04-24 05:38 | 33.93962 | -118.39193 | 127 ft | 24 kts | 83° |
| 2026-04-24 05:38 | 33.93980 | -118.38994 | 130 ft | 24 kts | 84° |
| 2026-04-24 05:38 | 33.94001 | -118.38794 | 126 ft | 24 kts | 82° |
| 2026-04-24 05:38 | 33.94024 | -118.38578 | 129 ft | 31 kts | 83° |
| 2026-04-24 05:39 | 33.94050 | -118.38321 | 127 ft | 30 kts | 83° |
| 2026-04-24 05:39 | 33.94073 | -118.38104 | 130 ft | 10 kts | 82° |
| 2026-04-24 05:39 | 33.94076 | -118.38034 | 128 ft | 0 kts | 108° |
| 2026-04-24 05:39 | 33.94074 | -118.38032 | 128 ft | 0 kts | 116° |
| 2026-04-24 05:40 | 33.94045 | -118.38002 | 129 ft | 10 kts | 154° |
| 2026-04-24 05:40 | 33.93996 | -118.37997 | 127 ft | 2 kts | 197° |
| 2026-04-24 05:40 | 33.93987 | -118.38015 | 125 ft | 3 kts | 252° |
| 2026-04-24 05:41 | 33.93983 | -118.38040 | 126 ft | 5 kts | 259° |
| 2026-04-24 05:41 | 33.93980 | -118.38072 | 130 ft | 0 kts | 264° |
| 2026-04-24 05:41 | 33.93978 | -118.38098 | 130 ft | 12 kts | 263° |
| 2026-04-24 05:41 | 33.93941 | -118.38453 | 126 ft | 81 kts | 263° |
| 2026-04-24 05:42 | 33.93838 | -118.39443 | 126 ft | 155 kts | 263° |
| 2026-04-24 05:42 | 33.93671 | -118.41005 | 176 ft | 212 kts | 261° |
| 2026-04-24 05:42 | 33.93470 | -118.42829 | 821 ft | 224 kts | 262° |
| 2026-04-24 05:42 | 33.93266 | -118.44730 | 1714 ft | 226 kts | 264° |
| 2026-04-24 05:43 | 33.93103 | -118.46567 | 2445 ft | 225 kts | 265° |
| 2026-04-24 05:43 | 33.92945 | -118.48543 | 2576 ft | 246 kts | 265° |
| 2026-04-24 05:43 | 33.92781 | -118.50607 | 2831 ft | 260 kts | 265° |
| 2026-04-24 05:43 | 33.92607 | -118.52768 | 3294 ft | 268 kts | 265° |
| 2026-04-24 05:44 | 33.92422 | -118.55026 | 3851 ft | 272 kts | 264° |
| 2026-04-24 05:44 | 33.92234 | -118.57316 | 4436 ft | 277 kts | 264° |
| 2026-04-24 05:44 | 33.92041 | -118.59644 | 5070 ft | 279 kts | 264° |
| 2026-04-24 05:44 | 33.91846 | -118.61985 | 5654 ft | 283 kts | 264° |
| 2026-04-24 05:45 | 33.91711 | -118.64380 | 6201 ft | 288 kts | 269° |
| 2026-04-24 05:45 | 33.91702 | -118.66783 | 6740 ft | 292 kts | 270° |
| 2026-04-24 05:45 | 33.91717 | -118.69225 | 7435 ft | 288 kts | 270° |
| 2026-04-24 05:45 | 33.91727 | -118.71630 | 8117 ft | 288 kts | 270° |
| 2026-04-24 05:46 | 33.91729 | -118.74070 | 8628 ft | 292 kts | 270° |
| 2026-04-24 05:46 | 33.91725 | -118.76493 | 9244 ft | 293 kts | 270° |